createdAt,value
2022-10-26T03:01:05.683Z,3.83
2022-10-26T03:03:34.107Z,3.53
2022-10-26T03:06:02.450Z,3.13
2022-10-26T03:08:30.890Z,3.70
2022-10-26T03:10:59.221Z,3.80
2022-10-26T03:13:27.525Z,3.70
2022-10-26T03:15:57.533Z,3.63
2022-10-26T03:18:27.355Z,3.97
2022-10-26T03:20:55.747Z,3.63
2022-10-26T03:23:24.020Z,3.90
2022-10-26T03:25:52.394Z,3.40
2022-10-26T03:28:20.807Z,4.43
2022-10-26T03:30:49.185Z,3.93
2022-10-26T03:33:17.661Z,3.73
2022-10-26T03:35:47.409Z,3.63
2022-10-26T03:38:16.180Z,4.53
2022-10-26T03:40:44.564Z,5.10
2022-10-26T03:43:12.871Z,4.33
2022-10-26T03:45:41.236Z,3.50
2022-10-26T03:48:09.633Z,4.00
2022-10-26T03:50:37.973Z,4.43
2022-10-26T03:53:08.081Z,3.70
2022-10-26T03:55:36.477Z,4.47
2022-10-26T03:58:05.040Z,4.40
2022-10-26T04:00:33.432Z,4.40
2022-10-26T04:03:02.106Z,4.70
2022-10-26T04:05:31.175Z,4.10
2022-10-26T04:08:03.130Z,4.53
2022-10-26T04:10:33.270Z,4.73
2022-10-26T04:13:01.963Z,4.80
2022-10-26T04:15:30.900Z,4.17
2022-10-26T04:18:00.067Z,4.87
2022-10-26T04:20:30.949Z,3.37
2022-10-26T04:23:01.259Z,4.53
2022-10-26T04:25:32.681Z,4.47
2022-10-26T04:28:05.555Z,4.17
2022-10-26T04:30:35.574Z,4.53
2022-10-26T04:33:04.705Z,4.43
2022-10-26T04:35:33.725Z,5.40
2022-10-26T04:38:03.327Z,4.60
2022-10-26T04:40:34.577Z,4.37
2022-10-26T04:43:04.402Z,3.63
2022-10-26T04:45:32.892Z,3.53
2022-10-26T04:48:03.539Z,4.20
2022-10-26T04:50:31.902Z,3.90
2022-10-26T04:53:00.405Z,4.87
2022-10-26T04:55:28.918Z,4.00
2022-10-26T04:58:00.230Z,4.63
2022-10-26T05:00:32.916Z,4.30
2022-10-26T05:03:01.683Z,4.30
2022-10-26T05:05:32.343Z,5.03
2022-10-26T05:08:00.709Z,4.50
2022-10-26T05:10:29.538Z,4.80
2022-10-26T05:13:00.155Z,4.97
2022-10-26T05:15:30.377Z,5.53
2022-10-26T05:18:02.913Z,5.33
2022-10-26T05:20:33.658Z,4.50
2022-10-26T05:23:04.085Z,5.00
2022-10-26T05:25:36.473Z,6.43
2022-10-26T05:28:08.630Z,4.80
2022-10-26T05:30:38.396Z,4.63
2022-10-26T05:33:07.706Z,5.70
2022-10-26T05:35:36.170Z,4.13
2022-10-26T05:38:09.617Z,4.67
2022-10-26T05:40:38.371Z,4.70
2022-10-26T05:43:07.297Z,5.53
2022-10-26T05:45:37.012Z,5.47
2022-10-26T05:48:06.243Z,4.80
2022-10-26T05:50:34.594Z,4.83
2022-10-26T05:53:03.016Z,4.90
2022-10-26T05:55:32.451Z,4.43
2022-10-26T05:58:01.805Z,5.17
2022-10-26T06:00:32.086Z,4.80
2022-10-26T06:03:17.498Z,4.33
2022-10-26T06:05:54.722Z,4.43
2022-10-26T06:08:25.797Z,4.50
2022-10-26T06:10:56.162Z,5.13
2022-10-26T06:13:25.453Z,5.00
2022-10-26T06:16:15.839Z,4.80
2022-10-26T06:18:59.604Z,4.23
2022-10-26T06:21:46.496Z,4.37
2022-10-26T06:24:24.892Z,5.10
2022-10-26T06:27:00.280Z,4.07
2022-10-26T06:29:41.914Z,4.70
2022-10-26T06:32:11.403Z,4.57
2022-10-26T06:34:47.013Z,4.47
2022-10-26T06:37:16.106Z,4.33
2022-10-26T06:39:51.425Z,4.90
2022-10-26T06:42:23.240Z,5.10
2022-10-26T06:44:52.465Z,5.40
2022-10-26T06:47:27.166Z,4.80
2022-10-26T06:50:10.739Z,4.73
2022-10-26T06:52:45.560Z,4.90
2022-10-26T06:55:17.296Z,5.63
2022-10-26T06:57:46.484Z,5.13
2022-10-26T07:00:21.526Z,4.83
2022-10-26T07:02:51.748Z,5.83
2022-10-26T07:05:21.863Z,4.87
2022-10-26T07:07:50.694Z,4.70
2022-10-26T07:10:19.145Z,5.13
2022-10-26T07:12:47.452Z,5.03
2022-10-26T07:15:16.150Z,4.70
2022-10-26T07:17:46.066Z,5.27
2022-10-26T07:20:15.160Z,6.13
2022-10-26T07:22:44.892Z,6.90
2022-10-26T07:25:13.624Z,5.67
2022-10-26T07:27:42.045Z,6.17
2022-10-26T07:30:11.965Z,5.77
2022-10-26T07:32:40.439Z,5.93
2022-10-26T07:35:09.636Z,5.23
2022-10-26T07:37:38.139Z,5.77
2022-10-26T07:40:09.693Z,5.60
2022-10-26T07:42:38.142Z,6.30
2022-10-26T07:45:08.178Z,6.77
2022-10-26T07:47:36.642Z,6.50
2022-10-26T07:50:05.939Z,5.70
2022-10-26T07:52:35.887Z,5.87
2022-10-26T07:55:04.477Z,6.13
2022-10-26T07:57:35.885Z,6.67
2022-10-26T08:00:07.170Z,6.50
2022-10-26T08:02:36.227Z,6.40
2022-10-26T08:05:06.063Z,5.87
2022-10-26T08:07:34.422Z,7.80
2022-10-26T08:10:04.611Z,6.80
2022-10-26T08:12:34.360Z,6.20
2022-10-26T08:15:02.695Z,6.70
2022-10-26T08:17:31.097Z,7.17
2022-10-26T08:20:00.183Z,6.30
2022-10-26T08:22:30.932Z,6.50
2022-10-26T08:24:59.465Z,5.93
2022-10-26T08:27:27.887Z,6.77
2022-10-26T08:29:57.612Z,6.30
2022-10-26T08:32:26.021Z,6.73
2022-10-26T08:34:54.314Z,7.00
2022-10-26T08:37:22.884Z,6.10
2022-10-26T08:39:54.665Z,6.40
2022-10-26T08:42:30.328Z,6.27
2022-10-26T08:45:05.387Z,6.00
2022-10-26T08:47:43.180Z,6.00
2022-10-26T08:50:26.598Z,5.90
2022-10-26T08:53:03.833Z,5.13
2022-10-26T08:58:23.034Z,4.80
2022-10-26T09:00:54.228Z,5.33
2022-10-26T09:03:22.640Z,4.80
2022-10-26T09:06:07.105Z,5.00
2022-10-26T09:08:48.032Z,4.10
2022-10-26T09:11:27.411Z,4.70
2022-10-26T09:14:05.727Z,4.50
2022-10-26T09:16:51.510Z,4.60
2022-10-26T09:19:41.985Z,5.23
2022-10-26T09:22:20.123Z,4.50
2022-10-26T09:24:54.591Z,4.80
2022-10-26T09:27:28.604Z,4.40
2022-10-26T09:30:00.223Z,4.60
2022-10-26T09:32:37.822Z,4.30
2022-10-26T09:35:15.318Z,5.53
2022-10-26T09:37:49.859Z,5.13
2022-10-26T09:40:25.098Z,5.10
2022-10-26T09:43:00.255Z,4.60
2022-10-26T09:45:34.932Z,5.03
2022-10-26T09:48:13.572Z,5.20
2022-10-26T09:50:46.055Z,4.40
2022-10-26T09:53:14.423Z,5.20
2022-10-26T09:55:45.902Z,5.20
2022-10-26T09:58:18.669Z,4.40
2022-10-26T10:00:47.994Z,4.20
2022-10-26T10:03:24.000Z,5.27
2022-10-26T10:05:53.085Z,4.13
2022-10-26T10:08:24.158Z,3.90
2022-10-26T10:11:08.661Z,3.70
2022-10-26T10:13:39.544Z,3.60
2022-10-26T10:16:13.386Z,4.23
2022-10-26T10:18:43.783Z,3.90
2022-10-26T10:21:14.215Z,4.33
2022-10-26T10:23:52.019Z,3.57
2022-10-26T10:26:20.706Z,3.77
2022-10-26T10:28:59.903Z,4.40
2022-10-26T10:31:33.616Z,4.90
2022-10-26T10:34:17.302Z,4.93
2022-10-26T10:36:45.811Z,3.60
2022-10-26T10:39:41.748Z,4.10
2022-10-26T10:42:19.906Z,4.60
2022-10-26T10:44:52.314Z,5.00
2022-10-26T10:47:25.482Z,3.37
2022-10-26T10:50:03.022Z,3.40
2022-10-26T10:52:34.162Z,4.50
2022-10-26T10:55:19.793Z,3.73
2022-10-26T10:58:14.452Z,3.70
2022-10-26T11:00:45.478Z,5.40
2022-10-26T11:03:46.232Z,5.30
2022-10-26T11:06:18.791Z,5.10
2022-10-26T11:08:51.834Z,4.03
2022-10-26T11:11:24.498Z,4.60
2022-10-26T11:13:58.232Z,4.10
2022-10-26T11:16:32.590Z,4.07
2022-10-26T11:19:08.523Z,4.10
2022-10-26T11:21:39.019Z,5.13
2022-10-26T11:24:18.011Z,4.80
2022-10-26T11:26:52.669Z,4.60
2022-10-26T11:29:35.071Z,3.90
2022-10-26T11:32:16.265Z,4.57
2022-10-26T11:34:52.467Z,4.80
2022-10-26T11:37:29.073Z,3.90
2022-10-26T11:40:06.624Z,4.13
2022-10-26T11:42:43.102Z,4.97
2022-10-26T11:45:19.170Z,4.50
2022-10-26T11:47:53.501Z,4.37
2022-10-26T11:50:25.385Z,4.80
2022-10-26T11:53:00.790Z,3.90
2022-10-26T11:55:30.157Z,3.80
2022-10-26T11:57:59.810Z,4.20
